Terminal Aerodrome Forecast
Issued by NWS St Louis, MO

Home | Current Version | Previous Version | Text Only | Print | Product List | Glossary On
Versions: 1 2 3 4 5 6 7 8 9 10 11 12 13 14
000
FTUS43 KLSX 262339
TAFCOU
TAF
KCOU 262339Z 2700/2724 VRB04KT P6SM VCSH BKN100
     FM270800 11004KT P6SM -SHRA VCTS OVC045CB
      TEMPO 2709/2713 4SM TS OVC025CB
     FM271300 22009KT P6SM VCSH OVC035
     FM271600 24008KT P6SM BKN045
     FM272300 35005KT P6SM BKN045=

USA.gov is the U.S. government's official web portal to all federal, state and local government web resources and services.